Huddleston, Virginia
Current Conditions -  °F | °C
As of 12:54 AM on Thursday 29 Jan 2015 (Local Time) from KLYH Reporting Station
Clear Clear  
Wind Chill: 22°   Ceiling: Unl
Heat Index: 22°   Visibility: 10mi
Dew Point:   Wind: 0mph
Humidity: 53%   Direction: NA
Pressure: 30.31"   Gusts: NA
Location:  37.06°N, 79.55°W
Report Text: KLYH 290554Z AUTO 00000KT 10SM CLR M06/M14 A3031 RMK AO2 SLP272 T10561139 11017 21072 58001
Loading
Personal Weather Stations






























Interactive Weather Map New forecast layout! Learn more

10-Day Weather Forecast

Advertisements
Track Severe Weather on mobile